SPHO/AYP METAR and TAF weather

Enter ICAO airport designator
Station Type Date Time Source
SPHO METAR 2019/04/24 16:00 UTC NOAA

SPHO 241600Z VRB03KT 9999 FEW045 BKN120 21/08 Q1029 RMK PP000


Station Type Date Time Source
SPHO Decoded METAR 2019/04/24 16:00 UTC NOAA

Ayacucho, Peru (SPHO) 13-08S 074-13W 2749M
Apr 24, 2019 - 12:00 PM EDT / 2019.04.24 1600 UTC
Wind: Variable at 3 MPH (3 KT):0
Visibility: greater than 7 mile(s):0
Sky conditions: mostly cloudy
Temperature: 69 F (21 C)
Dew Point: 46 F (8 C)
Relative Humidity: 43%
Pressure (altimeter): 30.39 in. Hg (1029 hPa)
ob: SPHO 241600Z VRB03KT 9999 FEW045 BKN120 21/08 Q1029 RMK PP000
cycle: 16

Station Type Date Time Source
SPHO TAF 2019/04/24 12:33 UTC NOAA

SPHO 241100Z 2412/2512 00000KT 9999 FEW035 BKN070 TX23/2419Z TN11/2511Z
TEMPO 2421/2501 02010KT

Example: see airport list